sensor_id;sensor_type;location;lat;lon;timestamp;pressure;altitude;pressure_sealevel;temperature;humidity
27805;BME280;15183;51.350;11.102;2023-01-29T00:01:52;101338.41;;;1.68;64.19
27805;BME280;15183;51.350;11.102;2023-01-29T00:04:18;101335.59;;;1.59;63.96
27805;BME280;15183;51.350;11.102;2023-01-29T00:06:45;101294.78;;;1.37;63.94
27805;BME280;15183;51.350;11.102;2023-01-29T00:09:12;101297.25;;;1.39;64.19
27805;BME280;15183;51.350;11.102;2023-01-29T00:11:39;101322.66;;;1.58;64.16
27805;BME280;15183;51.350;11.102;2023-01-29T00:14:06;101323.25;;;1.62;64.12
27805;BME280;15183;51.350;11.102;2023-01-29T00:16:32;101300.63;;;1.51;64.03
27805;BME280;15183;51.350;11.102;2023-01-29T00:19:01;101315.16;;;1.65;64.21
27805;BME280;15183;51.350;11.102;2023-01-29T00:21:28;101302.19;;;1.63;64.30
27805;BME280;15183;51.350;11.102;2023-01-29T00:23:56;101317.22;;;1.71;64.09
27805;BME280;15183;51.350;11.102;2023-01-29T00:26:23;101312.38;;;1.66;64.09
27805;BME280;15183;51.350;11.102;2023-01-29T00:28:50;101304.81;;;1.63;64.15
27805;BME280;15183;51.350;11.102;2023-01-29T00:31:20;101315.56;;;1.70;64.41
27805;BME280;15183;51.350;11.102;2023-01-29T00:33:47;101305.25;;;1.68;64.32
27805;BME280;15183;51.350;11.102;2023-01-29T00:36:16;101323.91;;;1.85;64.10
27805;BME280;15183;51.350;11.102;2023-01-29T00:38:43;101328.97;;;1.86;64.31
27805;BME280;15183;51.350;11.102;2023-01-29T00:41:14;101304.59;;;1.76;64.04
27805;BME280;15183;51.350;11.102;2023-01-29T00:44:00;101292.34;;;1.67;64.21
27805;BME280;15183;51.350;11.102;2023-01-29T00:46:45;101300.88;;;1.69;64.15
27805;BME280;15183;51.350;11.102;2023-01-29T00:49:12;101289.13;;;1.63;64.33
27805;BME280;15183;51.350;11.102;2023-01-29T00:51:38;101292.97;;;1.59;64.33
27805;BME280;15183;51.350;11.102;2023-01-29T00:54:05;101302.19;;;1.63;64.22
27805;BME280;15183;51.350;11.102;2023-01-29T00:56:35;101287.69;;;1.49;64.14
27805;BME280;15183;51.350;11.102;2023-01-29T00:59:03;101263.94;;;1.31;64.37
27805;BME280;15183;51.350;11.102;2023-01-29T01:01:29;101267.75;;;1.17;63.63
27805;BME280;15183;51.350;11.102;2023-01-29T01:04:14;101278.44;;;1.14;63.98
27805;BME280;15183;51.350;11.102;2023-01-29T01:06:42;101271.78;;;1.10;64.09
27805;BME280;15183;51.350;11.102;2023-01-29T01:09:09;101260.97;;;0.93;64.56
27805;BME280;15183;51.350;11.102;2023-01-29T01:11:54;101272.63;;;0.89;64.64
27805;BME280;15183;51.350;11.102;2023-01-29T01:14:21;101266.25;;;0.82;64.72
27805;BME280;15183;51.350;11.102;2023-01-29T01:16:48;101271.66;;;0.90;64.69
27805;BME280;15183;51.350;11.102;2023-01-29T01:19:15;101281.94;;;1.03;65.27
27805;BME280;15183;51.350;11.102;2023-01-29T01:21:41;101262.25;;;0.99;65.13
27805;BME280;15183;51.350;11.102;2023-01-29T01:24:13;101266.72;;;1.08;64.58
27805;BME280;15183;51.350;11.102;2023-01-29T01:26:40;101262.06;;;1.12;64.92
27805;BME280;15183;51.350;11.102;2023-01-29T01:29:06;101238.19;;;0.95;64.64
27805;BME280;15183;51.350;11.102;2023-01-29T01:31:34;101272.75;;;1.09;64.34
27805;BME280;15183;51.350;11.102;2023-01-29T01:34:00;101271.09;;;1.08;64.52
27805;BME280;15183;51.350;11.102;2023-01-29T01:36:27;101266.53;;;1.00;64.74
27805;BME280;15183;51.350;11.102;2023-01-29T01:38:53;101265.00;;;0.97;64.47
27805;BME280;15183;51.350;11.102;2023-01-29T01:41:21;101273.41;;;1.01;64.84
27805;BME280;15183;51.350;11.102;2023-01-29T01:43:59;101272.56;;;1.00;64.85
27805;BME280;15183;51.350;11.102;2023-01-29T01:46:36;101249.00;;;0.91;64.52
27805;BME280;15183;51.350;11.102;2023-01-29T01:49:09;101273.50;;;0.99;65.09
27805;BME280;15183;51.350;11.102;2023-01-29T01:51:42;101248.81;;;0.82;64.89
27805;BME280;15183;51.350;11.102;2023-01-29T01:54:23;101259.84;;;0.86;64.66
27805;BME280;15183;51.350;11.102;2023-01-29T01:56:57;101265.75;;;0.88;64.67
27805;BME280;15183;51.350;11.102;2023-01-29T01:59:38;101267.41;;;0.89;64.98
27805;BME280;15183;51.350;11.102;2023-01-29T02:02:06;101279.00;;;0.96;64.48
27805;BME280;15183;51.350;11.102;2023-01-29T02:04:51;101261.78;;;0.72;65.07
27805;BME280;15183;51.350;11.102;2023-01-29T02:07:41;101268.88;;;0.82;65.21
27805;BME280;15183;51.350;11.102;2023-01-29T02:14:15;101259.19;;;0.94;65.26
27805;BME280;15183;51.350;11.102;2023-01-29T02:16:42;101261.06;;;1.03;65.17
27805;BME280;15183;51.350;11.102;2023-01-29T02:22:50;101270.59;;;1.14;64.93
27805;BME280;15183;51.350;11.102;2023-01-29T02:28:44;101284.91;;;1.20;65.27
27805;BME280;15183;51.350;11.102;2023-01-29T02:31:38;101265.75;;;1.09;65.18
27805;BME280;15183;51.350;11.102;2023-01-29T02:34:28;101280.13;;;1.25;65.61
27805;BME280;15183;51.350;11.102;2023-01-29T02:37:17;101269.84;;;1.23;65.55
27805;BME280;15183;51.350;11.102;2023-01-29T02:40:00;101277.59;;;1.35;64.97
27805;BME280;15183;51.350;11.102;2023-01-29T02:42:40;101283.00;;;1.43;64.99
27805;BME280;15183;51.350;11.102;2023-01-29T02:45:17;101279.75;;;1.51;65.35
27805;BME280;15183;51.350;11.102;2023-01-29T02:47:57;101269.88;;;1.54;65.34
27805;BME280;15183;51.350;11.102;2023-01-29T02:56:21;101264.19;;;1.80;64.60
27805;BME280;15183;51.350;11.102;2023-01-29T02:58:57;101265.44;;;1.86;64.78
27805;BME280;15183;51.350;11.102;2023-01-29T03:01:56;101274.41;;;1.93;64.81
27805;BME280;15183;51.350;11.102;2023-01-29T03:04:37;101271.94;;;1.92;64.59
27805;BME280;15183;51.350;11.102;2023-01-29T03:07:17;101257.31;;;1.79;64.44
27805;BME280;15183;51.350;11.102;2023-01-29T03:10:36;101257.53;;;1.66;64.13
27805;BME280;15183;51.350;11.102;2023-01-29T03:13:25;101255.53;;;1.49;64.60
27805;BME280;15183;51.350;11.102;2023-01-29T03:16:23;101260.97;;;1.36;64.85
27805;BME280;15183;51.350;11.102;2023-01-29T03:19:08;101254.38;;;1.10;64.65
27805;BME280;15183;51.350;11.102;2023-01-29T03:21:45;101252.38;;;1.03;65.13
27805;BME280;15183;51.350;11.102;2023-01-29T03:24:33;101238.44;;;0.92;65.34
27805;BME280;15183;51.350;11.102;2023-01-29T03:27:23;101250.03;;;0.99;65.28
27805;BME280;15183;51.350;11.102;2023-01-29T03:30:13;101258.44;;;1.03;65.59
27805;BME280;15183;51.350;11.102;2023-01-29T03:33:07;101253.84;;;0.95;65.54
27805;BME280;15183;51.350;11.102;2023-01-29T03:35:42;101243.22;;;0.87;65.34
27805;BME280;15183;51.350;11.102;2023-01-29T03:38:10;101238.28;;;0.72;65.04
27805;BME280;15183;51.350;11.102;2023-01-29T03:41:03;101243.22;;;0.66;65.40
27805;BME280;15183;51.350;11.102;2023-01-29T03:43:49;101251.75;;;0.56;65.31
27805;BME280;15183;51.350;11.102;2023-01-29T03:46:35;101261.25;;;0.57;65.39
27805;BME280;15183;51.350;11.102;2023-01-29T03:49:23;101256.06;;;0.46;65.49
27805;BME280;15183;51.350;11.102;2023-01-29T03:58:37;101267.84;;;0.73;65.68
27805;BME280;15183;51.350;11.102;2023-01-29T04:01:18;101264.78;;;0.68;65.62
27805;BME280;15183;51.350;11.102;2023-01-29T04:04:04;101265.59;;;0.68;65.22
27805;BME280;15183;51.350;11.102;2023-01-29T04:06:37;101246.53;;;0.56;65.60
27805;BME280;15183;51.350;11.102;2023-01-29T04:09:21;101259.22;;;0.61;65.69
27805;BME280;15183;51.350;11.102;2023-01-29T04:12:04;101256.50;;;0.63;65.24
27805;BME280;15183;51.350;11.102;2023-01-29T04:14:35;101236.25;;;0.55;65.74
27805;BME280;15183;51.350;11.102;2023-01-29T04:17:15;101236.00;;;0.58;65.68
27805;BME280;15183;51.350;11.102;2023-01-29T04:19:43;101246.00;;;0.74;65.71
27805;BME280;15183;51.350;11.102;2023-01-29T04:22:19;101214.06;;;0.61;65.38
27805;BME280;15183;51.350;11.102;2023-01-29T04:24:47;101225.41;;;0.71;65.20
27805;BME280;15183;51.350;11.102;2023-01-29T04:33:33;101250.59;;;0.49;65.46
27805;BME280;15183;51.350;11.102;2023-01-29T04:36:37;101247.19;;;0.49;65.53
27805;BME280;15183;51.350;11.102;2023-01-29T04:42:07;101231.34;;;0.40;66.07
27805;BME280;15183;51.350;11.102;2023-01-29T04:44:38;101239.56;;;0.57;65.49
27805;BME280;15183;51.350;11.102;2023-01-29T04:47:41;101224.28;;;0.52;65.59
27805;BME280;15183;51.350;11.102;2023-01-29T04:50:20;101209.38;;;0.43;65.85
27805;BME280;15183;51.350;11.102;2023-01-29T04:58:46;101205.47;;;0.49;65.94
27805;BME280;15183;51.350;11.102;2023-01-29T05:01:17;101207.41;;;0.56;65.67
27805;BME280;15183;51.350;11.102;2023-01-29T05:03:49;101159.28;;;0.39;65.91
27805;BME280;15183;51.350;11.102;2023-01-29T05:06:17;101188.09;;;0.59;65.98
27805;BME280;15183;51.350;11.102;2023-01-29T05:08:46;101197.31;;;0.63;65.54
27805;BME280;15183;51.350;11.102;2023-01-29T05:11:16;101175.56;;;0.53;66.00
27805;BME280;15183;51.350;11.102;2023-01-29T05:17:25;101182.38;;;0.65;65.57
27805;BME280;15183;51.350;11.102;2023-01-29T05:19:51;101194.88;;;0.83;66.19
27805;BME280;15183;51.350;11.102;2023-01-29T05:22:18;101184.28;;;0.84;65.49
27805;BME280;15183;51.350;11.102;2023-01-29T05:24:50;101189.84;;;0.91;65.56
27805;BME280;15183;51.350;11.102;2023-01-29T05:27:28;101146.28;;;0.61;65.46
27805;BME280;15183;51.350;11.102;2023-01-29T05:30:15;101183.13;;;0.98;65.48
27805;BME280;15183;51.350;11.102;2023-01-29T05:32:41;101190.78;;;1.11;65.81
27805;BME280;15183;51.350;11.102;2023-01-29T05:35:08;101151.28;;;0.95;65.39
27805;BME280;15183;51.350;11.102;2023-01-29T05:37:34;101172.34;;;1.13;65.61
27805;BME280;15183;51.350;11.102;2023-01-29T05:40:01;101162.19;;;1.10;65.73
27805;BME280;15183;51.350;11.102;2023-01-29T05:42:27;101155.19;;;1.10;65.58
27805;BME280;15183;51.350;11.102;2023-01-29T05:44:54;101163.84;;;1.11;65.38
27805;BME280;15183;51.350;11.102;2023-01-29T05:47:20;101158.44;;;1.03;65.34
27805;BME280;15183;51.350;11.102;2023-01-29T05:49:47;101165.25;;;0.94;65.35
27805;BME280;15183;51.350;11.102;2023-01-29T05:52:13;101154.09;;;0.82;65.60
27805;BME280;15183;51.350;11.102;2023-01-29T05:54:40;101152.09;;;0.74;65.85
27805;BME280;15183;51.350;11.102;2023-01-29T05:57:06;101154.28;;;0.69;65.52
27805;BME280;15183;51.350;11.102;2023-01-29T05:59:32;101109.81;;;0.28;65.41
27805;BME280;15183;51.350;11.102;2023-01-29T06:02:05;101146.72;;;0.45;65.66
27805;BME280;15183;51.350;11.102;2023-01-29T06:04:32;101158.34;;;0.40;65.44
27805;BME280;15183;51.350;11.102;2023-01-29T06:06:58;101156.84;;;0.26;66.04
27805;BME280;15183;51.350;11.102;2023-01-29T06:09:25;101160.06;;;0.19;65.77
27805;BME280;15183;51.350;11.102;2023-01-29T06:11:51;101161.06;;;0.06;65.63
27805;BME280;15183;51.350;11.102;2023-01-29T06:14:18;101199.16;;;0.19;65.73
27805;BME280;15183;51.350;11.102;2023-01-29T06:16:44;101193.25;;;0.17;66.17
27805;BME280;15183;51.350;11.102;2023-01-29T06:19:10;101192.78;;;0.11;66.37
27805;BME280;15183;51.350;11.102;2023-01-29T06:21:37;101205.22;;;0.19;66.03
27805;BME280;15183;51.350;11.102;2023-01-29T06:24:04;101198.09;;;0.21;65.55
27805;BME280;15183;51.350;11.102;2023-01-29T06:26:30;101188.16;;;0.15;66.08
27805;BME280;15183;51.350;11.102;2023-01-29T06:29:37;101185.59;;;0.04;66.11
27805;BME280;15183;51.350;11.102;2023-01-29T06:32:04;101175.06;;;-0.06;65.63
27805;BME280;15183;51.350;11.102;2023-01-29T06:34:30;101194.69;;;0.09;65.54
27805;BME280;15183;51.350;11.102;2023-01-29T06:36:56;101168.34;;;-0.09;66.16
27805;BME280;15183;51.350;11.102;2023-01-29T06:39:23;101196.94;;;0.03;65.95
27805;BME280;15183;51.350;11.102;2023-01-29T06:41:49;101210.19;;;0.11;66.41
27805;BME280;15183;51.350;11.102;2023-01-29T06:44:16;101224.75;;;0.13;66.21
27805;BME280;15183;51.350;11.102;2023-01-29T06:46:42;101219.44;;;0.04;66.31
27805;BME280;15183;51.350;11.102;2023-01-29T06:49:08;101233.41;;;0.14;66.04
27805;BME280;15183;51.350;11.102;2023-01-29T06:51:35;101235.91;;;0.16;66.14
27805;BME280;15183;51.350;11.102;2023-01-29T06:54:01;101243.13;;;0.23;66.32
27805;BME280;15183;51.350;11.102;2023-01-29T06:56:28;101228.44;;;0.22;66.40
27805;BME280;15183;51.350;11.102;2023-01-29T06:58:54;101254.78;;;0.40;65.93
27805;BME280;15183;51.350;11.102;2023-01-29T07:01:21;101245.53;;;0.48;66.51
27805;BME280;15183;51.350;11.102;2023-01-29T07:03:49;101258.41;;;0.61;66.38
27805;BME280;15183;51.350;11.102;2023-01-29T07:06:17;101252.09;;;0.63;66.30
27805;BME280;15183;51.350;11.102;2023-01-29T07:08:44;101268.78;;;0.72;65.89
27805;BME280;15183;51.350;11.102;2023-01-29T07:11:11;101269.22;;;0.77;66.28
27805;BME280;15183;51.350;11.102;2023-01-29T07:13:37;101262.47;;;0.75;65.83
27805;BME280;15183;51.350;11.102;2023-01-29T07:16:04;101245.50;;;0.80;65.97
27805;BME280;15183;51.350;11.102;2023-01-29T07:18:32;101262.56;;;1.06;66.17
27805;BME280;15183;51.350;11.102;2023-01-29T07:20:58;101265.06;;;1.07;66.11
27805;BME280;15183;51.350;11.102;2023-01-29T07:23:28;101217.50;;;1.04;66.30
27805;BME280;15183;51.350;11.102;2023-01-29T07:25:55;101270.00;;;1.32;66.13
27805;BME280;15183;51.350;11.102;2023-01-29T07:28:21;101262.25;;;1.41;66.12
27805;BME280;15183;51.350;11.102;2023-01-29T07:30:47;101253.03;;;1.47;66.04
27805;BME280;15183;51.350;11.102;2023-01-29T07:33:14;101270.31;;;1.69;65.81
27805;BME280;15183;51.350;11.102;2023-01-29T07:35:42;101256.91;;;1.84;66.22
27805;BME280;15183;51.350;11.102;2023-01-29T07:38:09;101216.03;;;1.73;65.83
27805;BME280;15183;51.350;11.102;2023-01-29T07:41:23;101250.25;;;2.11;65.58
27805;BME280;15183;51.350;11.102;2023-01-29T07:43:49;101208.97;;;2.05;65.86
27805;BME280;15183;51.350;11.102;2023-01-29T07:46:15;101200.44;;;2.12;65.60
27805;BME280;15183;51.350;11.102;2023-01-29T07:48:42;101226.06;;;2.38;66.16
27805;BME280;15183;51.350;11.102;2023-01-29T07:51:08;101233.66;;;2.51;66.24
27805;BME280;15183;51.350;11.102;2023-01-29T07:53:35;101215.63;;;2.48;65.51
27805;BME280;15183;51.350;11.102;2023-01-29T07:56:02;101185.19;;;2.47;65.29
27805;BME280;15183;51.350;11.102;2023-01-29T07:58:28;101219.19;;;2.77;65.38
27805;BME280;15183;51.350;11.102;2023-01-29T08:00:55;101215.31;;;2.81;65.35
27805;BME280;15183;51.350;11.102;2023-01-29T08:03:21;101214.91;;;2.75;65.51
27805;BME280;15183;51.350;11.102;2023-01-29T08:05:48;101224.13;;;2.80;65.36
27805;BME280;15183;51.350;11.102;2023-01-29T08:08:14;101198.94;;;2.69;65.62
27805;BME280;15183;51.350;11.102;2023-01-29T08:10:41;101181.47;;;2.59;65.69
27805;BME280;15183;51.350;11.102;2023-01-29T08:13:07;101203.09;;;2.71;65.42
27805;BME280;15183;51.350;11.102;2023-01-29T08:15:34;101209.13;;;2.82;65.41
27805;BME280;15183;51.350;11.102;2023-01-29T08:18:07;101209.13;;;2.72;65.71
27805;BME280;15183;51.350;11.102;2023-01-29T08:20:34;101212.41;;;2.84;65.73
27805;BME280;15183;51.350;11.102;2023-01-29T08:23:03;101185.84;;;2.79;65.62
27805;BME280;15183;51.350;11.102;2023-01-29T08:25:31;101230.72;;;3.03;65.70
27805;BME280;15183;51.350;11.102;2023-01-29T08:27:58;101248.63;;;2.98;65.04
27805;BME280;15183;51.350;11.102;2023-01-29T08:30:30;101255.66;;;2.88;65.07
27805;BME280;15183;51.350;11.102;2023-01-29T08:32:57;101266.81;;;2.90;65.39
27805;BME280;15183;51.350;11.102;2023-01-29T08:35:24;101227.19;;;2.55;65.14
27805;BME280;15183;51.350;11.102;2023-01-29T08:38:02;101257.59;;;2.86;65.37
27805;BME280;15183;51.350;11.102;2023-01-29T08:40:33;101245.19;;;2.88;65.49
27805;BME280;15183;51.350;11.102;2023-01-29T08:43:03;101228.97;;;2.84;65.22
27805;BME280;15183;51.350;11.102;2023-01-29T08:45:32;101234.28;;;3.02;65.25
27805;BME280;15183;51.350;11.102;2023-01-29T08:47:58;101229.31;;;3.09;65.36
27805;BME280;15183;51.350;11.102;2023-01-29T08:50:25;101187.16;;;3.02;65.44
27805;BME280;15183;51.350;11.102;2023-01-29T08:53:00;101193.44;;;3.19;65.42
27805;BME280;15183;51.350;11.102;2023-01-29T08:55:27;101176.09;;;3.18;65.07
27805;BME280;15183;51.350;11.102;2023-01-29T08:57:54;101200.31;;;3.30;65.15
27805;BME280;15183;51.350;11.102;2023-01-29T09:00:23;101208.03;;;3.32;65.14
27805;BME280;15183;51.350;11.102;2023-01-29T09:02:49;101185.72;;;3.28;64.85
27805;BME280;15183;51.350;11.102;2023-01-29T09:05:16;101177.59;;;3.31;65.02
27805;BME280;15183;51.350;11.102;2023-01-29T09:07:43;101179.22;;;3.32;64.81
27805;BME280;15183;51.350;11.102;2023-01-29T09:10:10;101191.72;;;3.48;64.88
27805;BME280;15183;51.350;11.102;2023-01-29T09:12:37;101174.34;;;3.47;64.97
27805;BME280;15183;51.350;11.102;2023-01-29T09:15:04;101168.13;;;3.48;65.34
27805;BME280;15183;51.350;11.102;2023-01-29T09:17:30;101164.09;;;3.54;64.88
27805;BME280;15183;51.350;11.102;2023-01-29T09:19:56;101177.09;;;3.73;65.25
27805;BME280;15183;51.350;11.102;2023-01-29T09:22:24;101182.97;;;3.85;64.95
27805;BME280;15183;51.350;11.102;2023-01-29T09:24:50;101168.06;;;3.86;64.47
27805;BME280;15183;51.350;11.102;2023-01-29T09:27:16;101175.78;;;3.87;64.38
27805;BME280;15183;51.350;11.102;2023-01-29T09:29:43;101157.63;;;3.76;64.40
27805;BME280;15183;51.350;11.102;2023-01-29T09:32:09;101165.94;;;3.71;64.95
27805;BME280;15183;51.350;11.102;2023-01-29T09:34:36;101158.50;;;3.67;64.56
27805;BME280;15183;51.350;11.102;2023-01-29T09:37:02;101179.00;;;3.81;64.62
27805;BME280;15183;51.350;11.102;2023-01-29T09:39:28;101192.31;;;3.88;64.55
27805;BME280;15183;51.350;11.102;2023-01-29T09:42:08;101200.06;;;3.89;65.00
27805;BME280;15183;51.350;11.102;2023-01-29T09:45:12;101198.56;;;4.05;64.78
27805;BME280;15183;51.350;11.102;2023-01-29T09:47:40;101183.81;;;4.04;65.01
27805;BME280;15183;51.350;11.102;2023-01-29T09:50:36;101189.28;;;4.11;64.61
27805;BME280;15183;51.350;11.102;2023-01-29T09:53:42;101183.81;;;4.22;64.90
27805;BME280;15183;51.350;11.102;2023-01-29T09:56:13;101172.34;;;4.23;64.96
27805;BME280;15183;51.350;11.102;2023-01-29T09:58:42;101162.91;;;4.30;64.65
27805;BME280;15183;51.350;11.102;2023-01-29T10:07:13;101173.91;;;4.52;65.02
27805;BME280;15183;51.350;11.102;2023-01-29T10:10:05;101173.59;;;4.55;64.73
27805;BME280;15183;51.350;11.102;2023-01-29T10:13:05;101163.63;;;4.59;64.61
27805;BME280;15183;51.350;11.102;2023-01-29T10:16:02;101158.38;;;4.59;64.94
27805;BME280;15183;51.350;11.102;2023-01-29T10:21:43;101152.56;;;4.73;64.74
27805;BME280;15183;51.350;11.102;2023-01-29T10:24:37;101148.38;;;4.89;64.53
27805;BME280;15183;51.350;11.102;2023-01-29T10:27:16;101129.56;;;4.93;64.51
27805;BME280;15183;51.350;11.102;2023-01-29T10:29:44;101140.13;;;5.10;64.39
27805;BME280;15183;51.350;11.102;2023-01-29T10:32:18;101137.06;;;5.23;64.32
27805;BME280;15183;51.350;11.102;2023-01-29T10:34:48;101145.16;;;5.30;64.43
27805;BME280;15183;51.350;11.102;2023-01-29T10:37:21;101132.03;;;5.30;64.14
27805;BME280;15183;51.350;11.102;2023-01-29T10:39:50;101114.28;;;5.32;64.29
27805;BME280;15183;51.350;11.102;2023-01-29T10:42:30;101125.38;;;5.52;64.13
27805;BME280;15183;51.350;11.102;2023-01-29T11:02:48;101097.66;;;5.74;63.69
27805;BME280;15183;51.350;11.102;2023-01-29T11:06:07;101106.84;;;5.87;63.93
27805;BME280;15183;51.350;11.102;2023-01-29T11:11:53;101083.53;;;5.92;64.12
27805;BME280;15183;51.350;11.102;2023-01-29T11:15:11;101071.53;;;5.98;63.24
27805;BME280;15183;51.350;11.102;2023-01-29T11:18:11;101070.41;;;6.08;63.46
27805;BME280;15183;51.350;11.102;2023-01-29T11:20:44;101060.22;;;6.14;63.44
27805;BME280;15183;51.350;11.102;2023-01-29T11:23:27;101069.91;;;6.21;63.32
27805;BME280;15183;51.350;11.102;2023-01-29T11:25:56;101012.19;;;5.87;63.00
27805;BME280;15183;51.350;11.102;2023-01-29T11:28:48;101048.19;;;6.28;62.91
27805;BME280;15183;51.350;11.102;2023-01-29T11:31:23;101045.06;;;6.32;63.15
27805;BME280;15183;51.350;11.102;2023-01-29T11:34:21;101052.78;;;6.50;62.73
27805;BME280;15183;51.350;11.102;2023-01-29T11:37:14;101048.47;;;6.58;62.84
27805;BME280;15183;51.350;11.102;2023-01-29T11:39:43;101025.28;;;6.53;62.76
27805;BME280;15183;51.350;11.102;2023-01-29T11:42:20;101011.16;;;6.46;62.35
27805;BME280;15183;51.350;11.102;2023-01-29T11:44:47;101007.53;;;6.47;62.71
27805;BME280;15183;51.350;11.102;2023-01-29T11:47:26;101029.38;;;6.64;62.64
27805;BME280;15183;51.350;11.102;2023-01-29T11:49:59;101014.63;;;6.46;61.99
27805;BME280;15183;51.350;11.102;2023-01-29T11:52:36;101035.28;;;6.66;62.06
27805;BME280;15183;51.350;11.102;2023-01-29T11:55:22;101024.75;;;6.66;62.44
27805;BME280;15183;51.350;11.102;2023-01-29T11:58:20;101038.53;;;6.76;61.87
27805;BME280;15183;51.350;11.102;2023-01-29T12:00:52;101030.63;;;6.76;62.28
27805;BME280;15183;51.350;11.102;2023-01-29T12:03:47;101022.56;;;6.78;62.13
27805;BME280;15183;51.350;11.102;2023-01-29T12:06:34;101028.78;;;6.85;62.47
27805;BME280;15183;51.350;11.102;2023-01-29T12:09:09;101008.91;;;6.83;62.20
27805;BME280;15183;51.350;11.102;2023-01-29T12:11:40;101005.09;;;6.85;61.62
27805;BME280;15183;51.350;11.102;2023-01-29T12:14:32;101006.34;;;6.98;61.69
27805;BME280;15183;51.350;11.102;2023-01-29T12:17:20;100978.59;;;6.87;61.65
27805;BME280;15183;51.350;11.102;2023-01-29T12:19:58;100975.13;;;6.86;61.64
27805;BME280;15183;51.350;11.102;2023-01-29T12:23:03;100976.91;;;6.94;61.78
27805;BME280;15183;51.350;11.102;2023-01-29T12:25:49;100955.22;;;6.84;61.43
27805;BME280;15183;51.350;11.102;2023-01-29T12:32:06;100953.94;;;6.71;61.39
27805;BME280;15183;51.350;11.102;2023-01-29T12:34:46;100939.84;;;6.64;61.66
27805;BME280;15183;51.350;11.102;2023-01-29T12:37:56;100936.06;;;6.58;61.36
27805;BME280;15183;51.350;11.102;2023-01-29T12:40:48;100934.97;;;6.53;61.76
27805;BME280;15183;51.350;11.102;2023-01-29T12:43:21;100949.72;;;6.62;61.90
27805;BME280;15183;51.350;11.102;2023-01-29T12:45:54;100939.88;;;6.56;61.67
27805;BME280;15183;51.350;11.102;2023-01-29T12:48:36;100937.88;;;6.58;61.95
27805;BME280;15183;51.350;11.102;2023-01-29T12:51:11;100936.50;;;6.70;61.29
27805;BME280;15183;51.350;11.102;2023-01-29T12:54:01;100905.59;;;6.64;62.01
27805;BME280;15183;51.350;11.102;2023-01-29T12:56:40;100871.13;;;6.42;61.41
27805;BME280;15183;51.350;11.102;2023-01-29T12:59:44;100909.44;;;6.85;60.94
27805;BME280;15183;51.350;11.102;2023-01-29T13:02:42;100888.75;;;6.73;61.05
27805;BME280;15183;51.350;11.102;2023-01-29T13:05:36;100876.78;;;6.71;61.27
27805;BME280;15183;51.350;11.102;2023-01-29T13:08:15;100888.38;;;6.85;61.24
27805;BME280;15183;51.350;11.102;2023-01-29T13:10:49;100871.31;;;6.72;61.00
27805;BME280;15183;51.350;11.102;2023-01-29T13:13:51;100863.78;;;6.69;61.30
27805;BME280;15183;51.350;11.102;2023-01-29T13:16:26;100863.00;;;6.60;61.04
27805;BME280;15183;51.350;11.102;2023-01-29T13:19:05;100870.03;;;6.68;60.84
27805;BME280;15183;51.350;11.102;2023-01-29T13:21:39;100869.31;;;6.74;61.41
27805;BME280;15183;51.350;11.102;2023-01-29T13:24:19;100880.78;;;6.90;61.53
27805;BME280;15183;51.350;11.102;2023-01-29T13:26:47;100883.50;;;6.97;60.87
27805;BME280;15183;51.350;11.102;2023-01-29T13:29:29;100849.69;;;6.85;61.09
27805;BME280;15183;51.350;11.102;2023-01-29T13:32:01;100865.25;;;6.95;60.88
27805;BME280;15183;51.350;11.102;2023-01-29T13:34:42;100865.84;;;7.05;61.01
27805;BME280;15183;51.350;11.102;2023-01-29T13:37:18;100865.84;;;7.05;60.92
27805;BME280;15183;51.350;11.102;2023-01-29T13:39:51;100864.19;;;7.04;60.42
27805;BME280;15183;51.350;11.102;2023-01-29T13:42:42;100864.38;;;7.03;60.89
27805;BME280;15183;51.350;11.102;2023-01-29T13:45:16;100849.81;;;6.92;60.38
27805;BME280;15183;51.350;11.102;2023-01-29T13:47:44;100855.78;;;6.86;60.74
27805;BME280;15183;51.350;11.102;2023-01-29T13:52:59;100871.81;;;6.76;60.66
27805;BME280;15183;51.350;11.102;2023-01-29T13:55:32;100869.31;;;6.74;60.98
27805;BME280;15183;51.350;11.102;2023-01-29T13:58:18;100855.28;;;6.59;60.59
27805;BME280;15183;51.350;11.102;2023-01-29T14:01:03;100859.25;;;6.55;60.48
27805;BME280;15183;51.350;11.102;2023-01-29T14:06:00;100860.09;;;6.47;60.57
27805;BME280;15183;51.350;11.102;2023-01-29T14:08:44;100857.00;;;6.43;60.87
27805;BME280;15183;51.350;11.102;2023-01-29T14:13:43;100861.94;;;6.38;60.53
27805;BME280;15183;51.350;11.102;2023-01-29T14:18:49;100852.31;;;6.30;60.62
27805;BME280;15183;51.350;11.102;2023-01-29T14:21:32;100839.03;;;6.15;59.99
27805;BME280;15183;51.350;11.102;2023-01-29T14:24:20;100855.94;;;6.21;60.66
27805;BME280;15183;51.350;11.102;2023-01-29T14:26:52;100822.31;;;6.08;60.52
27805;BME280;15183;51.350;11.102;2023-01-29T14:29:25;100845.59;;;6.19;60.85
27805;BME280;15183;51.350;11.102;2023-01-29T14:34:47;100835.78;;;6.13;60.37
27805;BME280;15183;51.350;11.102;2023-01-29T14:39:58;100818.03;;;5.99;60.25
27805;BME280;15183;51.350;11.102;2023-01-29T14:42:37;100838.09;;;6.08;60.46
27805;BME280;15183;51.350;11.102;2023-01-29T14:45:32;100844.66;;;6.12;60.70
27805;BME280;15183;51.350;11.102;2023-01-29T14:53:16;100835.78;;;6.13;60.62
27805;BME280;15183;51.350;11.102;2023-01-29T14:58:50;100847.84;;;6.31;61.06
27805;BME280;15183;51.350;11.102;2023-01-29T15:01:29;100792.19;;;6.11;61.02
27805;BME280;15183;51.350;11.102;2023-01-29T15:04:20;100847.66;;;6.41;60.54
27805;BME280;15183;51.350;11.102;2023-01-29T15:07:13;100832.19;;;6.37;60.97
27805;BME280;15183;51.350;11.102;2023-01-29T15:09:52;100824.09;;;6.39;60.81
27805;BME280;15183;51.350;11.102;2023-01-29T15:12:45;100828.88;;;6.44;60.37